Time;durP1;ratioP1;P1;durP2;ratioP2;P2;SDS_P1;SDS_P2;PMS_P1;PMS_P2;Temp;Humidity;BMP_temperature;BMP_pressure;BME280_temperature;BME280_humidity;BME280_pressure;Samples;Min_cycle;Max_cycle;Signal;HPM_P1;HPM_P2
2023/07/11 00:00:22;;;;;;;1.90;1.20;;;28.50;47.20;;;;;;5003532;28;20557;-50
2023/07/11 00:02:51;;;;;;;4.43;1.37;;;28.50;47.20;;;;;;5007961;28;20512;-51
2023/07/11 00:05:20;;;;;;;1.67;1.20;;;28.50;47.30;;;;;;4988901;28;20443;-49
2023/07/11 00:07:49;;;;;;;1.93;1.67;;;28.50;47.30;;;;;;4992176;28;20479;-50
2023/07/11 00:10:19;;;;;;;1.77;1.40;;;28.50;47.40;;;;;;5006466;28;20472;-50
2023/07/11 00:12:50;;;;;;;1.33;1.20;;;28.50;47.20;;;;;;4993278;28;20573;-51
2023/07/11 00:15:18;;;;;;;1.63;1.53;;;28.50;47.20;;;;;;5010033;28;20457;-49
2023/07/11 00:17:48;;;;;;;1.67;1.40;;;28.50;47.20;;;;;;4987761;28;20508;-51
2023/07/11 00:20:18;;;;;;;2.60;1.63;;;28.50;47.30;;;;;;5005219;28;21015;-49
2023/07/11 00:22:47;;;;;;;2.10;1.27;;;28.50;47.20;;;;;;5004777;28;20518;-48
2023/07/11 00:25:16;;;;;;;3.40;1.60;;;28.50;47.20;;;;;;4992977;28;20544;-50
2023/07/11 00:27:44;;;;;;;1.80;1.57;;;28.50;47.40;;;;;;5005871;28;21189;-49
2023/07/11 00:30:14;;;;;;;2.63;1.37;;;28.50;47.20;;;;;;5006550;28;20970;-52
2023/07/11 00:32:43;;;;;;;1.47;1.20;;;28.50;48.50;;;;;;5006065;28;20505;-49
2023/07/11 00:35:12;;;;;;;1.50;1.40;;;28.50;47.30;;;;;;5006725;28;20461;-51
2023/07/11 00:37:41;;;;;;;2.43;1.30;;;28.50;47.20;;;;;;4988879;28;20477;-49
2023/07/11 00:40:10;;;;;;;1.53;1.43;;;28.50;47.30;;;;;;4990834;28;20474;-51
2023/07/11 00:42:42;;;;;;;2.10;1.60;;;28.50;47.40;;;;;;5006112;28;20479;-51
2023/07/11 00:45:43;;;;;;;1.37;1.27;;;28.50;47.40;;;;;;5004539;28;21063;-51
2023/07/11 00:48:14;;;;;;;2.30;1.63;;;28.50;47.30;;;;;;4987840;28;20474;-49
2023/07/11 00:50:44;;;;;;;2.00;1.37;;;28.40;47.20;;;;;;4999829;28;21071;-49
2023/07/11 00:53:14;;;;;;;1.73;1.60;;;28.40;47.20;;;;;;5002171;28;20466;-51
2023/07/11 00:55:43;;;;;;;1.40;1.07;;;28.40;47.20;;;;;;5007183;28;20983;-50
2023/07/11 00:58:13;;;;;;;1.80;1.67;;;28.40;47.30;;;;;;5004496;28;20482;-50
2023/07/11 01:00:42;;;;;;;1.93;1.53;;;28.40;47.20;;;;;;5005572;28;20466;-49
2023/07/11 01:03:10;;;;;;;2.13;1.40;;;28.40;47.20;;;;;;4988393;28;20886;-50
2023/07/11 01:05:42;;;;;;;1.50;1.30;;;28.40;47.20;;;;;;5005455;28;20649;-51
2023/07/11 01:08:11;;;;;;;1.60;1.30;;;28.40;47.20;;;;;;5000055;28;20557;-50
2023/07/11 01:10:40;;;;;;;1.83;1.50;;;28.40;47.20;;;;;;5005056;28;20951;-50
2023/07/11 01:13:10;;;;;;;1.83;1.20;;;28.40;47.10;;;;;;5004021;28;20474;-51
2023/07/11 01:15:39;;;;;;;1.20;1.07;;;28.40;47.20;;;;;;5004056;28;20427;-50
2023/07/11 01:18:09;;;;;;;1.50;1.20;;;28.40;47.30;;;;;;5001474;28;20488;-51
2023/07/11 01:20:38;;;;;;;1.57;1.43;;;28.40;47.30;;;;;;5010047;28;20520;-49
2023/07/11 01:23:08;;;;;;;1.53;1.43;;;28.40;47.30;;;;;;5004923;28;20621;-51
2023/07/11 01:25:38;;;;;;;2.13;1.30;;;28.30;47.20;;;;;;5005304;28;20458;-50
2023/07/11 01:28:07;;;;;;;1.53;1.40;;;28.30;47.20;;;;;;5001983;28;20577;-50
2023/07/11 01:30:35;;;;;;;2.53;1.53;;;28.30;47.10;;;;;;5001013;28;20564;-50
2023/07/11 01:33:05;;;;;;;1.47;1.30;;;28.30;47.20;;;;;;4988702;28;20532;-49
2023/07/11 01:35:33;;;;;;;2.27;1.40;;;28.40;47.20;;;;;;5010078;28;20454;-50
2023/07/11 01:38:02;;;;;;;2.30;1.67;;;28.30;47.20;;;;;;5002370;28;20520;-50
2023/07/11 01:40:32;;;;;;;1.40;1.27;;;28.30;47.20;;;;;;4990816;28;20552;-51
2023/07/11 01:43:02;;;;;;;2.47;1.30;;;28.30;47.20;;;;;;5002650;28;20547;-51
2023/07/11 01:45:31;;;;;;;1.47;1.10;;;28.30;47.20;;;;;;4984505;28;20517;-50
2023/07/11 01:47:59;;;;;;;1.27;1.10;;;28.30;47.20;;;;;;4986196;28;21197;-49
2023/07/11 01:50:29;;;;;;;1.43;1.17;;;28.30;47.40;;;;;;5004537;28;20544;-52
2023/07/11 01:52:58;;;;;;;1.57;1.33;;;28.30;47.30;;;;;;5002429;28;20559;-49
2023/07/11 01:55:27;;;;;;;2.27;1.13;;;28.30;47.40;;;;;;5011201;28;20968;-51
2023/07/11 01:57:57;;;;;;;2.40;1.43;;;28.30;47.50;;;;;;5008858;28;20560;-52
2023/07/11 02:00:25;;;;;;;1.80;1.40;;;28.30;47.30;;;;;;5009679;28;21057;-51
2023/07/11 02:02:54;;;;;;;1.60;1.50;;;28.30;47.40;;;;;;4994631;28;20529;-49
2023/07/11 02:05:23;;;;;;;1.93;1.50;;;28.30;47.20;;;;;;5007813;28;20874;-52
2023/07/11 02:07:52;;;;;;;1.60;1.50;;;28.30;47.30;;;;;;5008852;28;20847;-49
2023/07/11 02:10:20;;;;;;;1.70;1.60;;;28.30;47.30;;;;;;5005636;28;20832;-49
2023/07/11 02:12:49;;;;;;;1.90;1.33;;;28.30;47.10;;;;;;5009112;28;20576;-49
2023/07/11 02:15:20;;;;;;;2.07;1.50;;;28.20;47.00;;;;;;5010545;28;20956;-50
2023/07/11 02:17:48;;;;;;;2.20;1.60;;;28.20;47.00;;;;;;5004296;28;20507;-50
2023/07/11 02:20:17;;;;;;;2.23;1.60;;;28.20;47.10;;;;;;5003029;28;20525;-49
2023/07/11 02:22:45;;;;;;;2.50;1.67;;;28.20;47.10;;;;;;5006283;28;20486;-51
2023/07/11 02:25:14;;;;;;;2.20;2.00;;;28.20;47.00;;;;;;5012239;28;21061;-50
2023/07/11 02:27:42;;;;;;;2.10;1.70;;;28.20;46.70;;;;;;5008842;28;20465;-48
2023/07/11 02:30:11;;;;;;;1.63;1.53;;;28.20;46.90;;;;;;5011615;28;20469;-50
2023/07/11 02:32:42;;;;;;;2.90;1.67;;;28.20;46.90;;;;;;4998847;28;20925;-50
2023/07/11 02:35:10;;;;;;;2.00;1.43;;;28.20;46.90;;;;;;5009026;28;20438;-51
2023/07/11 02:37:39;;;;;;;2.50;1.60;;;28.20;47.00;;;;;;4993055;28;20485;-50
2023/07/11 02:40:08;;;;;;;2.60;1.60;;;28.20;46.70;;;;;;4994568;28;20476;-52
2023/07/11 02:42:37;;;;;;;2.60;2.23;;;28.20;46.30;;;;;;5005911;28;20469;-49
2023/07/11 02:45:06;;;;;;;1.90;1.63;;;28.10;46.40;;;;;;5010706;28;20588;-51
2023/07/11 02:47:35;;;;;;;2.63;1.90;;;28.10;46.40;;;;;;5001400;28;20574;-51
2023/07/11 02:50:06;;;;;;;1.60;1.50;;;28.10;46.70;;;;;;4995368;28;20797;-49
2023/07/11 02:52:35;;;;;;;1.97;1.77;;;28.10;46.80;;;;;;4991538;28;20980;-50
2023/07/11 02:55:04;;;;;;;1.90;1.50;;;28.10;46.80;;;;;;5009276;28;20951;-50
2023/07/11 02:57:32;;;;;;;2.23;1.70;;;28.10;46.70;;;;;;4986832;28;20470;-49
2023/07/11 03:00:01;;;;;;;2.00;1.87;;;28.10;46.70;;;;;;5005300;28;20469;-49
2023/07/11 03:02:30;;;;;;;2.90;2.10;;;28.10;46.90;;;;;;4986346;28;20574;-51
2023/07/11 03:04:58;;;;;;;1.87;1.47;;;28.10;46.60;;;;;;5004696;28;20516;-51
2023/07/11 03:07:28;;;;;;;2.33;1.90;;;28.10;46.60;;;;;;5008851;28;20467;-50
2023/07/11 03:09:57;;;;;;;3.03;1.80;;;28.10;46.90;;;;;;5007308;28;20449;-49
2023/07/11 03:12:25;;;;;;;1.77;1.60;;;28.10;46.90;;;;;;5010584;28;20565;-50
2023/07/11 03:14:54;;;;;;;1.73;1.63;;;28.10;46.80;;;;;;5005052;28;20970;-49
2023/07/11 03:17:23;;;;;;;1.67;1.50;;;28.10;46.60;;;;;;4988148;28;20474;-50
2023/07/11 03:19:51;;;;;;;1.83;1.40;;;28.10;46.70;;;;;;4991387;28;20453;-49
2023/07/11 03:22:19;;;;;;;1.77;1.60;;;28.00;46.40;;;;;;4992061;28;21074;-49
2023/07/11 03:24:49;;;;;;;1.70;1.60;;;28.00;46.50;;;;;;4990822;28;20833;-50
2023/07/11 03:27:18;;;;;;;2.10;1.83;;;28.00;46.30;;;;;;5005479;28;21002;-51
2023/07/11 03:29:46;;;;;;;2.10;1.90;;;28.00;46.60;;;;;;5011899;28;20450;-50
2023/07/11 03:32:15;;;;;;;1.97;1.63;;;28.00;46.30;;;;;;4988366;28;20585;-52
2023/07/11 03:34:46;;;;;;;1.97;1.60;;;28.00;46.40;;;;;;5002411;28;20446;-50
2023/07/11 03:37:25;;;;;;;1.77;1.67;;;28.00;46.40;;;;;;4991260;28;20482;-52
2023/07/11 03:39:55;;;;;;;2.70;1.77;;;28.00;46.30;;;;;;4988443;28;20801;-50
2023/07/11 03:42:23;;;;;;;1.60;1.47;;;28.00;46.70;;;;;;5004626;28;20476;-50
2023/07/11 03:44:52;;;;;;;2.60;2.10;;;28.00;46.70;;;;;;4992769;28;20470;-50
2023/07/11 03:47:20;;;;;;;2.20;2.00;;;28.00;46.40;;;;;;4988987;28;20999;-50
2023/07/11 03:49:49;;;;;;;1.47;1.37;;;28.00;46.20;;;;;;4986687;28;20446;-51
2023/07/11 03:52:18;;;;;;;2.37;1.57;;;27.90;47.20;;;;;;4991985;28;20462;-50
2023/07/11 03:54:46;;;;;;;4.53;1.70;;;27.90;46.40;;;;;;4992630;28;20533;-51
2023/07/11 03:57:17;;;;;;;3.23;1.70;;;27.90;46.20;;;;;;4988203;28;21080;-51
2023/07/11 03:59:45;;;;;;;1.97;1.77;;;27.90;46.20;;;;;;4992269;28;20450;-50
2023/07/11 04:02:14;;;;;;;2.40;1.70;;;27.90;46.20;;;;;;4992004;28;20575;-50
2023/07/11 04:04:43;;;;;;;2.00;1.80;;;27.90;46.50;;;;;;4975227;28;20470;-52
2023/07/11 04:07:11;;;;;;;3.10;2.13;;;27.90;46.40;;;;;;5010722;28;20525;-52
2023/07/11 04:09:40;;;;;;;2.33;1.87;;;27.90;45.80;;;;;;4990343;28;20442;-51
2023/07/11 04:12:10;;;;;;;2.30;1.53;;;27.90;46.50;;;;;;5005381;28;20569;-49
2023/07/11 04:14:40;;;;;;;1.73;1.63;;;27.90;46.40;;;;;;5005703;28;20505;-48
2023/07/11 04:17:08;;;;;;;2.47;1.87;;;27.90;46.60;;;;;;4989369;28;20443;-49
2023/07/11 04:19:37;;;;;;;2.70;1.93;;;27.90;46.70;;;;;;5004627;28;20459;-49
2023/07/11 04:22:05;;;;;;;2.40;2.07;;;27.90;46.50;;;;;;4991016;28;20512;-49
2023/07/11 04:24:34;;;;;;;2.07;1.73;;;27.90;47.40;;;;;;5004616;28;20441;-50
2023/07/11 04:27:03;;;;;;;2.17;1.87;;;27.90;46.30;;;;;;4991671;28;20426;-50
2023/07/11 04:29:31;;;;;;;2.07;1.73;;;27.80;46.60;;;;;;5008069;28;20450;-52
2023/07/11 04:32:01;;;;;;;2.33;2.10;;;27.80;46.30;;;;;;4985243;28;21020;-50
2023/07/11 04:34:29;;;;;;;1.90;1.67;;;27.90;46.60;;;;;;4987112;28;20463;-52
2023/07/11 04:36:58;;;;;;;1.80;1.67;;;27.90;46.60;;;;;;5007337;28;20441;-51
2023/07/11 04:39:26;;;;;;;2.37;1.90;;;27.80;46.60;;;;;;4992174;28;20564;-49
2023/07/11 04:41:55;;;;;;;2.00;1.80;;;27.90;46.70;;;;;;4991740;28;20481;-50
2023/07/11 04:44:23;;;;;;;2.60;2.13;;;27.80;46.60;;;;;;4984544;28;20450;-49
2023/07/11 04:46:52;;;;;;;1.80;1.60;;;27.80;46.60;;;;;;4993655;28;20482;-50
2023/07/11 04:49:22;;;;;;;2.00;1.63;;;27.80;46.60;;;;;;4984513;28;20460;-51
2023/07/11 04:51:51;;;;;;;2.40;2.20;;;27.80;46.50;;;;;;5008058;28;20543;-50
2023/07/11 04:54:19;;;;;;;2.50;2.30;;;27.80;46.60;;;;;;4985975;28;20881;-49
2023/07/11 04:56:55;;;;;;;2.13;1.93;;;27.80;46.70;;;;;;5005133;28;20470;-51
2023/07/11 04:59:24;;;;;;;2.27;1.70;;;27.80;46.50;;;;;;5008767;28;20449;-50
2023/07/11 05:01:53;;;;;;;2.50;2.30;;;27.80;46.60;;;;;;5004354;28;20466;-51
2023/07/11 05:04:23;;;;;;;2.33;1.83;;;27.80;46.50;;;;;;4991907;28;20491;-49
2023/07/11 05:06:52;;;;;;;1.80;1.50;;;27.80;46.40;;;;;;4991443;28;20572;-51
2023/07/11 05:09:20;;;;;;;2.80;2.40;;;27.80;46.60;;;;;;4997446;28;20501;-50
2023/07/11 05:11:51;;;;;;;1.80;1.70;;;27.80;46.30;;;;;;4991278;28;20987;-50
2023/07/11 05:14:19;;;;;;;2.40;1.87;;;27.80;46.70;;;;;;4992578;28;20461;-50
2023/07/11 05:16:48;;;;;;;2.23;1.90;;;27.80;46.80;;;;;;5003908;28;20470;-49
2023/07/11 05:19:17;;;;;;;2.07;1.87;;;27.80;46.70;;;;;;4986612;28;20489;-50
2023/07/11 05:21:46;;;;;;;2.03;1.80;;;27.70;46.60;;;;;;4993066;28;20466;-50
2023/07/11 05:24:15;;;;;;;2.80;1.83;;;27.70;46.50;;;;;;4990947;28;20453;-51
2023/07/11 05:26:43;;;;;;;2.40;2.20;;;27.70;46.70;;;;;;4991720;28;20479;-49
2023/07/11 05:29:12;;;;;;;2.20;2.00;;;27.80;46.50;;;;;;4986145;28;20468;-49
2023/07/11 05:31:40;;;;;;;2.10;1.90;;;27.70;46.60;;;;;;5005618;28;20470;-50
2023/07/11 05:34:10;;;;;;;3.70;1.97;;;27.70;46.70;;;;;;4992907;28;20443;-52
2023/07/11 05:36:39;;;;;;;2.40;1.93;;;27.80;46.40;;;;;;4989091;28;20458;-50
2023/07/11 05:39:12;;;;;;;1.90;1.70;;;27.80;46.20;;;;;;5002677;28;20454;-50
2023/07/11 05:41:44;;;;;;;2.90;2.50;;;27.70;46.40;;;;;;4992916;28;20488;-51
2023/07/11 05:44:14;;;;;;;2.60;2.30;;;27.70;46.30;;;;;;4988973;28;20442;-51
2023/07/11 05:46:42;;;;;;;2.23;1.90;;;27.70;46.10;;;;;;4985948;28;20483;-50
2023/07/11 05:49:15;;;;;;;3.10;2.07;;;27.70;46.40;;;;;;4992060;28;20448;-51
2023/07/11 05:51:44;;;;;;;2.40;2.20;;;27.80;47.20;;;;;;5001998;28;20541;-49
2023/07/11 05:54:14;;;;;;;2.67;2.47;;;27.70;46.40;;;;;;4987746;28;20450;-50
2023/07/11 05:56:42;;;;;;;3.20;1.80;;;27.70;45.90;;;;;;5001435;28;20482;-49
2023/07/11 05:59:11;;;;;;;2.17;1.63;;;27.70;46.70;;;;;;5002621;28;20920;-51
2023/07/11 06:01:40;;;;;;;2.17;1.87;;;27.70;46.50;;;;;;5004486;28;20537;-49
2023/07/11 06:04:12;;;;;;;2.90;2.50;;;27.70;46.40;;;;;;4987759;28;20788;-49
2023/07/11 06:06:42;;;;;;;3.23;2.23;;;27.70;46.70;;;;;;5004523;28;20825;-50
2023/07/11 06:09:15;;;;;;;2.40;2.20;;;27.70;46.80;;;;;;5005283;28;20955;-50
2023/07/11 06:11:45;;;;;;;3.80;2.20;;;27.70;46.20;;;;;;4993446;28;20466;-50
2023/07/11 06:14:15;;;;;;;4.17;2.60;;;27.70;46.70;;;;;;5004921;28;20450;-50
2023/07/11 06:16:44;;;;;;;2.50;2.07;;;27.70;46.40;;;;;;4984842;28;20449;-49
2023/07/11 06:19:17;;;;;;;2.57;1.83;;;27.70;46.40;;;;;;5004480;28;20878;-51
2023/07/11 06:21:46;;;;;;;2.23;1.90;;;27.70;46.70;;;;;;4999787;28;20451;-50
2023/07/11 06:24:15;;;;;;;2.47;2.27;;;27.70;46.60;;;;;;4984027;28;21033;-50
2023/07/11 06:26:44;;;;;;;2.10;1.90;;;27.70;46.20;;;;;;5003627;28;20544;-50
2023/07/11 06:29:12;;;;;;;2.80;2.27;;;27.70;46.50;;;;;;4990161;28;20454;-50
2023/07/11 06:31:41;;;;;;;2.70;2.50;;;27.70;46.50;;;;;;4988206;28;20876;-50
2023/07/11 06:34:10;;;;;;;2.83;2.20;;;27.70;46.60;;;;;;5001623;28;20449;-50
2023/07/11 06:36:38;;;;;;;2.70;2.10;;;27.70;46.50;;;;;;5006630;28;20498;-49
2023/07/11 06:39:07;;;;;;;1.83;1.63;;;27.70;46.50;;;;;;4991201;28;20477;-49
2023/07/11 06:41:38;;;;;;;2.67;2.30;;;27.70;46.70;;;;;;5000157;28;20481;-50
2023/07/11 06:44:08;;;;;;;3.20;1.97;;;27.70;46.50;;;;;;5011502;28;20793;-49
2023/07/11 06:46:37;;;;;;;2.40;2.17;;;27.70;46.40;;;;;;4999434;28;20818;-49
2023/07/11 06:49:05;;;;;;;3.60;2.20;;;27.70;46.40;;;;;;5007814;28;20516;-49
2023/07/11 06:51:34;;;;;;;2.50;2.20;;;27.70;46.40;;;;;;5002443;28;20462;-50
2023/07/11 06:54:03;;;;;;;2.90;2.40;;;27.70;46.40;;;;;;4990629;28;20823;-50
2023/07/11 06:56:32;;;;;;;5.33;2.63;;;27.70;46.40;;;;;;4992546;28;20472;-50
2023/07/11 06:59:02;;;;;;;3.17;2.87;;;27.70;46.40;;;;;;4993799;28;20434;-49
2023/07/11 07:01:31;;;;;;;2.80;2.23;;;27.70;46.40;;;;;;5004150;28;20484;-52
2023/07/11 07:04:05;;;;;;;3.30;2.60;;;27.70;46.50;;;;;;5004203;28;20519;-50
2023/07/11 07:06:35;;;;;;;1.90;1.80;;;27.70;46.30;;;;;;5006883;28;20487;-51
2023/07/11 07:09:04;;;;;;;1.97;1.77;;;27.70;46.60;;;;;;5009364;28;20842;-49
2023/07/11 07:11:35;;;;;;;3.00;2.20;;;27.70;46.80;;;;;;4988823;28;20482;-50
2023/07/11 07:14:07;;;;;;;2.33;2.13;;;27.70;46.20;;;;;;4994562;28;20511;-50
2023/07/11 07:16:36;;;;;;;2.50;2.30;;;27.70;46.20;;;;;;4999472;28;20520;-49
2023/07/11 07:19:06;;;;;;;3.40;2.17;;;27.70;46.20;;;;;;4986412;28;21012;-51
2023/07/11 07:21:38;;;;;;;5.10;2.27;;;27.70;46.40;;;;;;5005907;28;20470;-51
2023/07/11 07:24:07;;;;;;;3.00;2.50;;;27.70;46.20;;;;;;5006095;28;20449;-51
2023/07/11 07:26:36;;;;;;;3.30;2.10;;;27.70;47.40;;;;;;4984636;28;20474;-49
2023/07/11 07:29:05;;;;;;;2.07;1.87;;;27.70;46.50;;;;;;4997428;28;20738;-49
2023/07/11 07:31:37;;;;;;;2.23;1.57;;;27.70;46.50;;;;;;4987338;28;20517;-50
2023/07/11 07:34:07;;;;;;;2.17;1.97;;;27.70;46.80;;;;;;4987848;28;20451;-49
2023/07/11 07:36:35;;;;;;;2.23;1.73;;;27.70;46.80;;;;;;5000370;28;20443;-50
2023/07/11 07:39:04;;;;;;;2.40;1.90;;;27.70;47.00;;;;;;5007629;28;20457;-49
2023/07/11 07:41:33;;;;;;;2.00;1.80;;;27.70;47.00;;;;;;4988462;28;20482;-50
2023/07/11 07:44:01;;;;;;;3.13;2.50;;;27.70;47.20;;;;;;5007080;28;20457;-50
2023/07/11 07:46:31;;;;;;;2.60;1.93;;;27.70;47.10;;;;;;4989459;28;20493;-49
2023/07/11 07:48:59;;;;;;;1.90;1.70;;;27.70;47.30;;;;;;5004138;28;21016;-49
2023/07/11 07:51:28;;;;;;;2.00;1.60;;;27.70;47.40;;;;;;5007882;28;20492;-49
2023/07/11 07:53:56;;;;;;;3.13;2.37;;;27.70;47.30;;;;;;5003177;28;20500;-50
2023/07/11 07:56:25;;;;;;;2.20;2.00;;;27.70;47.40;;;;;;4987347;28;20461;-52
2023/07/11 07:58:54;;;;;;;2.13;1.93;;;27.70;47.50;;;;;;5007105;28;20974;-49
2023/07/11 08:01:23;;;;;;;1.83;1.33;;;27.70;47.60;;;;;;4990261;28;20545;-50
2023/07/11 08:03:52;;;;;;;2.30;2.10;;;27.70;47.50;;;;;;4992133;28;20864;-50
2023/07/11 08:06:21;;;;;;;3.27;2.17;;;27.70;47.50;;;;;;5008132;28;20472;-50
2023/07/11 08:08:51;;;;;;;1.57;1.47;;;27.70;47.50;;;;;;4990281;28;20524;-51
2023/07/11 08:11:21;;;;;;;2.47;2.13;;;27.70;47.60;;;;;;4991547;28;20496;-50
2023/07/11 08:13:51;;;;;;;1.93;1.73;;;27.70;47.50;;;;;;5009516;28;20953;-50
2023/07/11 08:16:29;;;;;;;1.63;1.53;;;27.70;47.70;;;;;;5005206;28;20462;-50
2023/07/11 08:19:04;;;;;;;3.40;2.27;;;27.70;47.70;;;;;;4987928;28;20453;-50
2023/07/11 08:21:35;;;;;;;2.13;1.93;;;27.70;47.60;;;;;;4984892;28;20478;-50
2023/07/11 08:24:06;;;;;;;1.73;1.63;;;27.70;47.70;;;;;;4998480;28;20564;-49
2023/07/11 08:26:35;;;;;;;2.20;2.00;;;27.70;47.60;;;;;;4998938;28;20446;-52
2023/07/11 08:29:04;;;;;;;3.30;2.03;;;27.70;47.70;;;;;;4988856;28;21026;-49
2023/07/11 08:31:52;;;;;;;2.23;1.87;;;27.70;47.60;;;;;;4984375;28;20611;-51
2023/07/11 08:34:22;;;;;;;1.93;1.73;;;27.70;47.50;;;;;;4992439;28;20442;-50
2023/07/11 08:36:51;;;;;;;2.30;1.77;;;27.70;47.70;;;;;;4973823;28;20457;-51
2023/07/11 08:39:19;;;;;;;2.67;2.10;;;27.70;47.60;;;;;;4988702;28;20439;-53
2023/07/11 08:41:50;;;;;;;3.43;1.97;;;27.70;47.50;;;;;;4992590;28;20482;-52
2023/07/11 08:44:24;;;;;;;1.80;1.70;;;27.70;47.70;;;;;;4986049;28;20445;-50
2023/07/11 08:47:00;;;;;;;4.67;2.20;;;27.70;47.70;;;;;;5002818;28;20457;-50
2023/07/11 08:49:34;;;;;;;2.43;1.83;;;27.70;47.80;;;;;;5000033;28;20461;-48
2023/07/11 08:52:05;;;;;;;2.00;1.80;;;27.70;47.70;;;;;;5003116;28;20482;-50
2023/07/11 08:54:38;;;;;;;2.77;2.07;;;27.70;47.60;;;;;;5007589;28;20449;-49
2023/07/11 08:57:09;;;;;;;2.17;1.67;;;27.70;47.60;;;;;;4989181;28;21019;-50
2023/07/11 08:59:46;;;;;;;2.03;1.87;;;27.70;47.70;;;;;;4989396;28;20447;-52
2023/07/11 09:02:29;;;;;;;2.00;1.80;;;27.70;47.70;;;;;;4988803;28;20480;-51
2023/07/11 09:05:02;;;;;;;2.13;1.93;;;27.70;47.60;;;;;;4987107;28;20449;-49
2023/07/11 09:07:37;;;;;;;2.27;1.97;;;27.70;47.60;;;;;;5003318;28;20855;-50
2023/07/11 09:10:28;;;;;;;1.80;1.57;;;27.70;47.50;;;;;;5004836;28;20449;-49
2023/07/11 09:13:54;;;;;;;1.60;1.50;;;27.70;47.60;;;;;;4992874;28;20485;-51
2023/07/11 09:16:43;;;;;;;2.07;1.87;;;27.70;47.50;;;;;;5003561;28;20454;-52
2023/07/11 09:19:22;;;;;;;3.80;1.80;;;27.70;47.50;;;;;;4993198;28;20433;-49
2023/07/11 09:21:55;;;;;;;2.47;2.23;;;27.70;47.60;;;;;;5007625;28;20844;-50
2023/07/11 09:24:32;;;;;;;2.10;1.90;;;27.70;47.60;;;;;;4989456;28;20452;-49
2023/07/11 09:27:17;;;;;;;2.70;2.50;;;27.70;47.50;;;;;;5005036;28;20504;-50
2023/07/11 09:29:47;;;;;;;1.87;1.70;;;27.70;47.50;;;;;;4985989;28;20536;-50
2023/07/11 09:32:17;;;;;;;2.47;1.97;;;27.70;47.60;;;;;;5003955;28;20476;-50
2023/07/11 09:34:48;;;;;;;2.10;1.90;;;27.70;47.60;;;;;;5006902;28;20438;-50
2023/07/11 09:37:27;;;;;;;1.93;1.70;;;27.70;47.70;;;;;;5007861;28;21015;-52
2023/07/11 09:40:02;;;;;;;2.63;2.43;;;27.70;47.50;;;;;;5001561;28;20469;-50
2023/07/11 09:42:41;;;;;;;2.20;2.00;;;27.70;47.40;;;;;;5007661;28;20466;-52
2023/07/11 09:45:12;;;;;;;2.13;1.73;;;27.70;47.50;;;;;;4991844;28;20453;-51
2023/07/11 09:47:42;;;;;;;2.40;2.20;;;27.70;47.50;;;;;;4983181;28;20501;-51
2023/07/11 09:50:32;;;;;;;2.17;1.97;;;27.70;47.40;;;;;;5003852;28;20474;-51
2023/07/11 09:53:15;;;;;;;2.47;2.10;;;27.70;47.20;;;;;;4985813;28;20481;-51
2023/07/11 09:55:44;;;;;;;2.10;1.90;;;27.70;47.20;;;;;;4988229;28;20474;-49
2023/07/11 09:58:16;;;;;;;3.30;2.10;;;27.70;47.00;;;;;;5003730;28;20473;-50
2023/07/11 10:00:46;;;;;;;2.53;2.00;;;27.70;47.30;;;;;;4989136;28;21090;-51
2023/07/11 10:03:20;;;;;;;2.53;2.33;;;27.70;47.20;;;;;;4985448;28;20489;-49
2023/07/11 10:05:51;;;;;;;3.00;2.13;;;27.70;47.00;;;;;;4987836;28;20453;-49
2023/07/11 10:08:23;;;;;;;2.40;2.20;;;27.70;47.00;;;;;;4995869;28;21019;-50
2023/07/11 10:10:53;;;;;;;2.30;2.00;;;27.70;47.00;;;;;;4991834;28;20454;-50
2023/07/11 10:13:23;;;;;;;6.73;2.60;;;27.70;47.10;;;;;;5009741;28;20493;-51
2023/07/11 10:16:06;;;;;;;3.13;2.00;;;27.70;47.00;;;;;;4989054;28;20501;-50
2023/07/11 10:18:36;;;;;;;3.20;2.60;;;27.70;47.10;;;;;;4981547;28;20447;-50
2023/07/11 10:21:13;;;;;;;2.20;2.00;;;27.70;47.10;;;;;;5010723;28;20884;-50
2023/07/11 10:23:49;;;;;;;2.20;2.00;;;27.70;47.20;;;;;;5000462;28;20461;-50
2023/07/11 10:26:22;;;;;;;2.50;2.27;;;27.70;47.10;;;;;;4991029;28;20923;-50
2023/07/11 10:29:00;;;;;;;2.27;2.07;;;27.70;47.20;;;;;;4990797;28;20541;-51
2023/07/11 10:31:40;;;;;;;1.97;1.70;;;27.80;47.20;;;;;;5002756;28;20493;-52
2023/07/11 10:34:15;;;;;;;2.90;2.30;;;27.70;47.30;;;;;;4995433;28;20451;-50
2023/07/11 10:36:46;;;;;;;2.40;2.00;;;27.80;47.20;;;;;;4990585;28;21001;-49
2023/07/11 10:39:20;;;;;;;2.20;2.00;;;27.80;47.30;;;;;;4988932;28;20821;-49
2023/07/11 10:41:53;;;;;;;4.30;2.43;;;27.80;47.40;;;;;;4992876;28;21001;-49
2023/07/11 10:44:26;;;;;;;2.90;2.30;;;27.80;47.20;;;;;;5002621;28;20474;-49
2023/07/11 10:46:56;;;;;;;2.90;2.53;;;27.80;47.30;;;;;;5007437;28;20473;-49
2023/07/11 10:49:32;;;;;;;2.53;2.20;;;27.80;47.20;;;;;;5008202;28;20496;-49
2023/07/11 10:52:05;;;;;;;2.40;2.20;;;27.80;47.20;;;;;;5004280;28;20528;-49
2023/07/11 10:54:45;;;;;;;2.90;1.93;;;27.80;47.20;;;;;;5004290;28;20886;-49
2023/07/11 10:57:34;;;;;;;2.40;2.20;;;27.80;47.20;;;;;;4993384;28;20561;-50
2023/07/11 11:00:17;;;;;;;2.93;2.00;;;27.80;47.00;;;;;;5009185;28;20972;-49
2023/07/11 11:02:56;;;;;;;3.73;2.17;;;27.80;46.90;;;;;;4992792;28;20523;-49
2023/07/11 11:05:47;;;;;;;3.67;2.40;;;27.80;46.90;;;;;;4992150;28;20520;-49
2023/07/11 11:08:20;;;;;;;2.40;2.13;;;27.80;47.10;;;;;;4989358;28;20487;-49
2023/07/11 11:10:58;;;;;;;2.77;2.20;;;27.80;47.20;;;;;;5010354;28;20450;-49
2023/07/11 11:13:34;;;;;;;2.37;2.17;;;27.80;47.20;;;;;;4990776;28;20470;-49
2023/07/11 11:16:12;;;;;;;2.50;2.30;;;27.80;47.00;;;;;;4985937;28;20696;-49
2023/07/11 11:18:51;;;;;;;2.40;1.90;;;27.80;47.10;;;;;;5001644;28;20450;-49
2023/07/11 11:21:28;;;;;;;3.20;2.10;;;27.80;47.00;;;;;;4990499;28;20466;-49
2023/07/11 11:24:43;;;;;;;2.33;2.00;;;27.80;46.80;;;;;;4991429;28;20764;-49
2023/07/11 11:27:34;;;;;;;2.60;2.40;;;27.80;47.10;;;;;;5006360;28;20481;-49
2023/07/11 11:30:16;;;;;;;2.40;2.20;;;27.80;47.10;;;;;;4992070;28;20474;-50
2023/07/11 11:32:52;;;;;;;1.77;1.63;;;27.90;47.20;;;;;;5004335;28;20554;-49
2023/07/11 11:35:34;;;;;;;2.30;2.10;;;27.80;46.80;;;;;;4989618;28;20548;-48
2023/07/11 11:38:25;;;;;;;2.20;1.83;;;27.90;47.10;;;;;;5001115;28;20537;-49
2023/07/11 11:41:00;;;;;;;2.33;1.90;;;27.90;47.10;;;;;;5003211;28;20990;-49
2023/07/11 11:43:30;;;;;;;2.20;2.00;;;27.90;47.10;;;;;;4990476;28;20584;-49
2023/07/11 11:46:19;;;;;;;2.63;2.10;;;27.90;47.20;;;;;;5007288;28;20544;-50
2023/07/11 11:48:54;;;;;;;1.93;1.80;;;27.90;47.10;;;;;;4986935;28;20462;-49
2023/07/11 11:51:27;;;;;;;3.40;2.47;;;27.90;47.10;;;;;;5008900;28;20480;-49
2023/07/11 11:54:06;;;;;;;2.37;2.17;;;27.90;46.90;;;;;;5003062;28;20497;-49
2023/07/11 11:56:41;;;;;;;2.30;2.10;;;27.90;47.00;;;;;;5001134;28;20465;-50
2023/07/11 11:59:18;;;;;;;2.73;2.20;;;27.90;46.90;;;;;;4991863;28;20767;-49
2023/07/11 12:02:04;;;;;;;2.50;2.30;;;27.90;46.90;;;;;;5003941;28;20489;-49
2023/07/11 12:05:00;;;;;;;1.97;1.87;;;27.90;46.60;;;;;;5006356;28;20835;-49
2023/07/11 12:07:32;;;;;;;2.13;1.93;;;27.90;46.50;;;;;;5000048;28;20844;-49
2023/07/11 12:10:19;;;;;;;2.63;2.00;;;27.90;47.00;;;;;;4994182;28;20477;-48
2023/07/11 12:13:25;;;;;;;2.03;1.83;;;28.00;47.20;;;;;;5000787;28;20466;-49
2023/07/11 12:15:57;;;;;;;2.47;2.27;;;28.00;46.60;;;;;;4998788;28;20806;-49
2023/07/11 12:18:44;;;;;;;2.57;2.37;;;28.00;47.00;;;;;;4985556;28;20496;-49
2023/07/11 12:21:41;;;;;;;2.30;2.10;;;28.00;47.20;;;;;;5007460;28;20462;-49
2023/07/11 12:24:24;;;;;;;3.93;2.47;;;28.00;47.20;;;;;;4988392;28;20454;-49
2023/07/11 12:27:41;;;;;;;2.30;2.10;;;28.00;47.00;;;;;;5007850;28;20477;-49
2023/07/11 12:30:35;;;;;;;3.07;2.17;;;28.00;47.20;;;;;;4989814;28;20474;-49
2023/07/11 12:33:36;;;;;;;2.87;2.30;;;28.00;47.20;;;;;;4987145;28;20466;-49
2023/07/11 12:36:29;;;;;;;2.53;2.00;;;28.00;47.40;;;;;;4989911;28;20454;-49
2023/07/11 12:39:03;;;;;;;2.20;2.00;;;28.00;47.20;;;;;;4996722;28;20469;-49
2023/07/11 12:41:39;;;;;;;2.00;1.80;;;28.00;47.30;;;;;;4987610;28;20488;-50
2023/07/11 12:44:16;;;;;;;3.07;2.60;;;28.00;47.40;;;;;;4999319;28;20484;-49
2023/07/11 12:46:46;;;;;;;2.20;2.00;;;28.00;46.00;;;;;;4990493;28;20998;-49
2023/07/11 12:49:24;;;;;;;2.30;2.07;;;28.00;46.90;;;;;;5000975;28;20474;-49
2023/07/11 12:51:53;;;;;;;4.13;2.57;;;28.00;46.40;;;;;;4986274;28;20462;-49
2023/07/11 12:54:24;;;;;;;2.77;2.57;;;28.10;46.40;;;;;;4988476;28;20454;-49
2023/07/11 12:56:53;;;;;;;2.50;2.30;;;28.10;46.80;;;;;;4996974;28;20474;-50
2023/07/11 12:59:22;;;;;;;2.70;2.37;;;28.10;46.90;;;;;;4989481;28;20454;-49
2023/07/11 13:01:52;;;;;;;2.70;2.50;;;28.10;45.80;;;;;;4986660;28;20999;-49
2023/07/11 13:04:35;;;;;;;2.37;2.17;;;28.10;46.50;;;;;;5005883;28;20485;-49
2023/07/11 13:07:04;;;;;;;2.40;2.20;;;28.10;46.90;;;;;;4992386;28;20967;-49
2023/07/11 13:09:42;;;;;;;3.70;2.60;;;28.10;46.90;;;;;;5005187;28;20537;-49
2023/07/11 13:12:17;;;;;;;2.70;2.50;;;28.10;46.60;;;;;;4990792;28;20891;-49
2023/07/11 13:14:47;;;;;;;2.90;2.20;;;28.10;46.60;;;;;;4988916;28;20469;-49